createdAt,value
2022-08-17T00:01:27.724Z,84.46
2022-08-17T00:03:55.044Z,83.93
2022-08-17T00:06:25.526Z,84.46
2022-08-17T00:08:55.287Z,84.84
2022-08-17T00:11:26.191Z,89.78
2022-08-17T00:13:58.581Z,88.45
2022-08-17T00:16:56.217Z,87.87
2022-08-17T00:19:23.128Z,85.77
2022-08-17T00:22:32.711Z,84.50
2022-08-17T00:24:38.839Z,84.15
2022-08-17T00:27:05.640Z,84.47
2022-08-17T00:29:32.281Z,85.17
2022-08-17T00:31:58.913Z,88.99
2022-08-17T00:34:25.614Z,89.71
2022-08-17T00:36:54.635Z,90.15
2022-08-17T00:39:21.304Z,90.95
2022-08-17T00:41:47.953Z,91.29
2022-08-17T00:44:15.660Z,91.62
2022-08-17T00:46:43.939Z,91.30
2022-08-17T00:49:12.724Z,91.14
2022-08-17T00:51:50.245Z,89.70
2022-08-17T00:54:44.959Z,88.64
2022-08-17T00:57:18.441Z,88.66
2022-08-17T00:59:55.956Z,86.14
2022-08-17T01:02:40.391Z,93.66
2022-08-17T01:05:15.140Z,92.71
2022-08-17T01:07:43.240Z,89.95
2022-08-17T01:10:58.228Z,88.20
2022-08-17T01:13:02.593Z,88.82
2022-08-17T01:15:31.754Z,89.88
2022-08-17T01:17:58.496Z,93.30
2022-08-17T01:20:25.190Z,95.31
2022-08-17T01:22:52.582Z,96.35
2022-08-17T01:25:20.669Z,96.78
2022-08-17T01:27:48.708Z,97.33
2022-08-17T01:30:58.596Z,96.60
2022-08-17T01:33:04.386Z,96.24
2022-08-17T01:35:31.048Z,94.15
2022-08-17T01:37:57.652Z,91.83
2022-08-17T01:40:35.220Z,90.95
2022-08-17T01:43:09.036Z,89.89
2022-08-17T01:45:42.771Z,90.88
2022-08-17T01:48:09.728Z,91.90
2022-08-17T01:50:38.036Z,91.91
2022-08-17T01:53:09.229Z,91.61
2022-08-17T01:55:45.767Z,91.36
2022-08-17T01:58:13.108Z,92.08
2022-08-17T02:00:59.370Z,92.42
2022-08-17T02:03:28.661Z,92.04
2022-08-17T02:05:55.661Z,92.12
2022-08-17T02:08:37.274Z,91.81
2022-08-17T02:11:14.645Z,91.80
2022-08-17T02:13:42.728Z,96.35
2022-08-17T02:16:09.390Z,98.98
2022-08-17T02:18:36.453Z,97.43
2022-08-17T02:21:04.293Z,95.43
2022-08-17T02:23:34.295Z,95.38
2022-08-17T02:26:01.402Z,94.74
2022-08-17T02:28:28.886Z,94.86
2022-08-17T02:31:00.937Z,92.47
2022-08-17T02:33:41.719Z,92.19
2022-08-17T02:36:09.424Z,93.24
2022-08-17T02:38:37.305Z,92.86
2022-08-17T02:41:04.646Z,92.90
2022-08-17T02:43:31.780Z,92.42
2022-08-17T02:45:58.457Z,91.78
2022-08-17T02:48:31.015Z,92.26
2022-08-17T02:50:59.655Z,91.21
2022-08-17T02:53:26.381Z,90.34
2022-08-17T02:55:53.718Z,90.23
2022-08-17T02:58:34.613Z,90.08
2022-08-17T03:01:06.425Z,90.39
2022-08-17T03:03:34.093Z,90.83
2022-08-17T03:06:01.231Z,90.43
2022-08-17T03:08:28.290Z,89.08
2022-08-17T03:10:55.190Z,88.83
2022-08-17T03:13:22.309Z,89.20
2022-08-17T03:15:49.422Z,89.41
2022-08-17T03:18:24.881Z,89.74
2022-08-17T03:20:58.204Z,90.09
2022-08-17T03:23:25.838Z,88.96
2022-08-17T03:25:54.494Z,90.18
2022-08-17T03:28:22.821Z,88.86
2022-08-17T03:30:51.379Z,88.82
2022-08-17T03:33:18.919Z,89.28
2022-08-17T03:35:46.245Z,89.51
2022-08-17T03:38:15.044Z,89.30
2022-08-17T03:40:56.940Z,89.43
2022-08-17T03:43:29.344Z,89.20
2022-08-17T03:46:34.178Z,89.28
2022-08-17T03:49:25.095Z,89.61
2022-08-17T03:52:10.665Z,88.14
2022-08-17T03:54:55.793Z,88.93
2022-08-17T03:57:22.895Z,89.03
2022-08-17T03:59:49.926Z,90.67
2022-08-17T04:02:30.264Z,89.19
2022-08-17T04:04:57.987Z,88.95
2022-08-17T04:07:27.638Z,89.55
2022-08-17T04:09:54.569Z,88.74
2022-08-17T04:12:23.215Z,88.94
2022-08-17T04:14:52.255Z,88.10
2022-08-17T04:17:26.140Z,88.17
2022-08-17T04:19:53.913Z,88.32
2022-08-17T04:22:30.508Z,87.50
2022-08-17T04:25:02.809Z,86.95
2022-08-17T04:27:29.440Z,86.96
2022-08-17T04:29:56.325Z,85.87
2022-08-17T04:33:00.407Z,85.54
2022-08-17T04:35:10.075Z,84.91
2022-08-17T04:37:36.805Z,84.01
2022-08-17T04:40:30.489Z,83.67
2022-08-17T04:43:02.213Z,83.56
2022-08-17T04:45:32.228Z,83.10
2022-08-17T04:48:00.022Z,80.03
2022-08-17T04:50:27.560Z,79.46
2022-08-17T04:52:54.421Z,79.25
2022-08-17T04:55:21.392Z,78.27
2022-08-17T04:57:48.028Z,77.33
2022-08-17T05:00:14.981Z,77.15
2022-08-17T05:02:50.999Z,77.61
2022-08-17T05:05:20.857Z,77.67
2022-08-17T05:07:47.938Z,77.78
2022-08-17T05:10:14.600Z,77.53
2022-08-17T05:12:41.212Z,77.50
2022-08-17T05:15:11.906Z,76.60
2022-08-17T05:17:38.561Z,76.55
2022-08-17T05:20:05.635Z,74.71
2022-08-17T05:22:32.268Z,74.25
2022-08-17T05:24:58.899Z,73.73
2022-08-17T05:27:30.807Z,73.07
2022-08-17T05:30:02.202Z,71.40
2022-08-17T05:32:39.626Z,70.25
2022-08-17T05:35:07.465Z,69.05
2022-08-17T05:37:34.135Z,68.71
2022-08-17T05:40:00.830Z,66.83
2022-08-17T05:42:27.537Z,65.89
2022-08-17T05:44:58.017Z,65.53
2022-08-17T05:47:26.338Z,65.85
2022-08-17T05:49:53.884Z,66.21
2022-08-17T05:52:20.525Z,66.02
2022-08-17T05:55:08.576Z,66.57
2022-08-17T05:57:52.861Z,66.13
2022-08-17T06:00:30.253Z,66.52
2022-08-17T06:03:25.274Z,65.23
2022-08-17T06:06:01.499Z,64.55
2022-08-17T06:08:43.535Z,63.86
2022-08-17T06:11:27.276Z,62.62
2022-08-17T06:14:04.108Z,60.19
2022-08-17T06:16:38.721Z,58.58
2022-08-17T06:19:17.259Z,57.33
2022-08-17T06:21:49.113Z,57.20
2022-08-17T06:24:28.383Z,56.15
2022-08-17T06:26:59.418Z,59.31
2022-08-17T06:29:46.279Z,59.16
2022-08-17T06:32:13.559Z,58.71
2022-08-17T06:34:43.715Z,59.09
2022-08-17T06:37:30.355Z,56.47
2022-08-17T06:40:45.596Z,53.13
2022-08-17T06:43:21.176Z,50.66
2022-08-17T06:46:02.330Z,48.72
2022-08-17T06:49:07.511Z,49.67
2022-08-17T06:51:49.185Z,49.25
2022-08-17T06:54:23.506Z,47.06
2022-08-17T06:57:06.449Z,46.70
2022-08-17T06:59:56.160Z,46.33
2022-08-17T07:03:13.009Z,46.39
2022-08-17T07:05:43.989Z,45.92
2022-08-17T07:08:13.274Z,46.32
2022-08-17T07:10:47.720Z,45.83
2022-08-17T07:13:29.396Z,44.70
2022-08-17T07:16:06.828Z,43.91
2022-08-17T07:18:34.251Z,43.87
2022-08-17T07:21:26.907Z,41.54
2022-08-17T07:24:29.213Z,42.38
2022-08-17T07:27:11.252Z,42.60
2022-08-17T07:29:40.941Z,41.33
2022-08-17T07:32:09.982Z,40.44
2022-08-17T07:35:11.143Z,40.56
2022-08-17T07:37:40.934Z,40.62
2022-08-17T07:40:34.091Z,40.14
2022-08-17T07:43:39.268Z,40.17
2022-08-17T07:46:40.852Z,39.69
2022-08-17T07:49:10.221Z,39.61
2022-08-17T07:51:57.231Z,40.29
2022-08-17T07:54:35.694Z,39.83
2022-08-17T07:57:03.425Z,39.22
2022-08-17T07:59:34.398Z,39.36
2022-08-17T08:02:31.792Z,38.17
2022-08-17T08:05:12.942Z,37.82
2022-08-17T08:07:42.644Z,38.01
2022-08-17T08:10:12.367Z,37.63
2022-08-17T08:12:42.457Z,36.49
2022-08-17T08:15:17.768Z,36.60
2022-08-17T08:18:03.076Z,36.19
2022-08-17T08:20:52.349Z,36.47
2022-08-17T08:23:39.300Z,36.94
2022-08-17T08:26:27.650Z,36.46
2022-08-17T08:29:31.127Z,37.14
2022-08-17T08:32:34.942Z,35.33
2022-08-17T08:35:13.674Z,35.05
2022-08-17T08:37:53.273Z,33.08
2022-08-17T08:40:29.888Z,33.77
2022-08-17T08:43:27.509Z,34.51
2022-08-17T08:46:09.378Z,34.89
2022-08-17T08:49:02.659Z,35.26
2022-08-17T08:51:43.022Z,35.37
2022-08-17T08:54:09.781Z,34.89
2022-08-17T08:57:19.175Z,35.18
2022-08-17T08:59:41.790Z,36.28
2022-08-17T09:02:34.615Z,35.72
2022-08-17T09:05:14.269Z,35.33
2022-08-17T09:08:07.305Z,35.41
2022-08-17T09:10:45.831Z,35.15
2022-08-17T09:13:15.413Z,34.66
2022-08-17T09:15:47.997Z,33.82
2022-08-17T09:19:02.159Z,34.46
2022-08-17T09:21:15.350Z,34.18
2022-08-17T09:24:12.782Z,34.13
2022-08-17T09:27:02.457Z,33.87
2022-08-17T09:29:35.206Z,34.40
2022-08-17T09:32:17.546Z,32.99
2022-08-17T09:34:52.649Z,32.96
2022-08-17T09:37:23.208Z,32.20
2022-08-17T09:40:09.703Z,33.06
2022-08-17T09:42:50.740Z,33.20
2022-08-17T09:45:24.583Z,33.42
2022-08-17T09:48:18.382Z,34.04
2022-08-17T09:51:05.853Z,33.12
2022-08-17T09:53:36.030Z,32.96
2022-08-17T09:56:05.605Z,33.77
2022-08-17T09:58:51.272Z,33.13
2022-08-17T10:01:37.433Z,32.60
2022-08-17T10:04:29.453Z,32.20
2022-08-17T10:07:17.870Z,31.16
2022-08-17T10:10:14.408Z,30.59
2022-08-17T10:13:20.137Z,30.47
2022-08-17T10:15:56.837Z,31.18
2022-08-17T10:18:41.144Z,30.43
2022-08-17T10:21:36.348Z,31.13
2022-08-17T10:24:21.364Z,30.13
2022-08-17T10:26:56.460Z,31.34
2022-08-17T10:29:48.876Z,32.12
2022-08-17T10:32:40.862Z,33.12
2022-08-17T10:35:31.157Z,33.06
2022-08-17T10:38:31.904Z,33.37
2022-08-17T10:41:27.253Z,33.38
2022-08-17T10:44:41.267Z,33.06
2022-08-17T10:47:11.357Z,32.29
2022-08-17T10:50:03.578Z,31.82
2022-08-17T10:52:30.600Z,31.93
2022-08-17T10:55:06.042Z,31.49
2022-08-17T10:57:37.556Z,31.42
2022-08-17T11:00:19.045Z,31.05
2022-08-17T11:02:54.570Z,32.36
2022-08-17T11:05:43.770Z,31.61
2022-08-17T11:08:57.539Z,31.74
2022-08-17T11:11:49.969Z,30.50
2022-08-17T11:14:17.329Z,30.22
2022-08-17T11:17:04.768Z,30.16
2022-08-17T11:19:40.633Z,30.33
2022-08-17T11:22:44.136Z,30.08
2022-08-17T11:25:17.965Z,29.97
2022-08-17T11:27:53.901Z,31.32
2022-08-17T11:30:47.097Z,30.62
2022-08-17T11:33:30.518Z,30.74
2022-08-17T11:36:33.332Z,31.09
2022-08-17T11:39:18.377Z,31.10
2022-08-17T11:41:58.187Z,30.90
2022-08-17T11:44:43.512Z,30.53
2022-08-17T11:47:42.456Z,31.06
2022-08-17T11:50:36.733Z,31.14
2022-08-17T11:53:04.132Z,31.19
2022-08-17T11:55:37.496Z,30.71
2022-08-17T11:58:37.453Z,30.95
2022-08-17T12:01:29.320Z,32.21
2022-08-17T12:04:25.944Z,31.90
2022-08-17T12:06:59.799Z,31.92
2022-08-17T12:09:32.251Z,32.53
2022-08-17T12:12:13.288Z,33.18
2022-08-17T12:17:40.939Z,33.68
2022-08-17T12:20:19.547Z,34.21
2022-08-17T12:23:01.161Z,34.62
2022-08-17T12:25:39.099Z,35.03
2022-08-17T12:28:37.912Z,34.97
2022-08-17T12:31:15.638Z,35.59
2022-08-17T12:33:47.515Z,35.06
2022-08-17T12:36:16.975Z,34.79
2022-08-17T12:39:14.330Z,34.31
2022-08-17T12:41:50.911Z,34.26
2022-08-17T12:44:19.258Z,33.99
2022-08-17T12:46:45.933Z,33.13
2022-08-17T12:49:35.529Z,32.95
2022-08-17T12:52:11.327Z,32.44
2022-08-17T12:54:46.869Z,32.98
2022-08-17T12:57:19.185Z,33.09
2022-08-17T12:59:50.378Z,33.46
2022-08-17T13:02:24.728Z,32.47
2022-08-17T13:04:51.495Z,32.50
2022-08-17T13:07:42.508Z,32.18
2022-08-17T13:10:18.411Z,31.81
2022-08-17T13:12:45.385Z,31.81
2022-08-17T13:15:23.979Z,30.95
2022-08-17T13:18:00.173Z,29.60
2022-08-17T13:20:26.888Z,29.08
2022-08-17T13:22:59.484Z,28.63
2022-08-17T13:25:27.793Z,27.90
2022-08-17T13:27:55.877Z,27.63
2022-08-17T13:30:29.288Z,26.15
2022-08-17T13:32:57.316Z,25.53
2022-08-17T13:35:44.147Z,25.49
2022-08-17T13:38:35.911Z,25.30
2022-08-17T13:41:04.136Z,25.08
2022-08-17T13:43:41.023Z,25.19
2022-08-17T13:46:20.404Z,23.26
2022-08-17T13:48:57.948Z,23.43
2022-08-17T13:51:28.492Z,23.96
2022-08-17T13:53:59.287Z,23.92
2022-08-17T13:56:38.608Z,23.37
2022-08-17T13:59:12.741Z,22.83
2022-08-17T14:01:52.556Z,23.54
2022-08-17T14:04:28.024Z,24.98
2022-08-17T14:07:13.032Z,26.47
2022-08-17T14:09:57.716Z,26.74
2022-08-17T14:12:26.844Z,26.92
2022-08-17T14:14:55.222Z,26.78
2022-08-17T14:17:23.237Z,27.78
2022-08-17T14:19:51.069Z,27.88
2022-08-17T14:22:23.772Z,28.39
2022-08-17T14:24:51.379Z,28.72
2022-08-17T14:27:19.467Z,29.34
2022-08-17T14:29:46.794Z,29.07
2022-08-17T14:32:37.067Z,28.49
2022-08-17T14:35:05.788Z,28.29
2022-08-17T14:37:34.467Z,29.67
2022-08-17T14:40:05.181Z,29.50
2022-08-17T14:42:33.849Z,30.34
2022-08-17T14:45:06.233Z,30.74
2022-08-17T14:47:52.888Z,30.24
2022-08-17T14:50:22.717Z,30.19
2022-08-17T14:52:50.555Z,28.82
2022-08-17T14:55:18.379Z,28.27
2022-08-17T14:57:45.655Z,27.91
2022-08-17T15:00:12.969Z,27.46
2022-08-17T15:02:54.953Z,27.29
2022-08-17T15:05:24.577Z,26.25
2022-08-17T15:07:53.398Z,26.31
2022-08-17T15:10:20.907Z,25.86
2022-08-17T15:12:48.181Z,25.03
2022-08-17T15:15:17.347Z,24.66
2022-08-17T15:17:54.624Z,24.44
2022-08-17T15:20:27.608Z,25.86
2022-08-17T15:22:57.269Z,27.34
2022-08-17T15:25:25.870Z,28.79
2022-08-17T15:27:52.933Z,29.19
2022-08-17T15:30:20.435Z,30.14
2022-08-17T15:32:51.339Z,30.30
2022-08-17T15:35:27.141Z,30.69
2022-08-17T15:37:54.442Z,31.15
2022-08-17T15:40:21.087Z,30.78
2022-08-17T15:42:47.750Z,31.64
2022-08-17T15:45:16.679Z,32.35
2022-08-17T15:47:43.361Z,32.40
2022-08-17T15:50:10.760Z,33.18
2022-08-17T15:52:40.355Z,33.46
2022-08-17T15:55:11.484Z,33.60
2022-08-17T15:57:38.803Z,33.12
2022-08-17T16:00:08.601Z,33.17
2022-08-17T16:03:44.481Z,33.95
2022-08-17T16:05:25.341Z,32.92
2022-08-17T16:07:53.261Z,32.80
2022-08-17T16:10:21.141Z,32.89
2022-08-17T16:12:49.688Z,33.33
2022-08-17T16:15:17.292Z,32.50
2022-08-17T16:17:43.996Z,33.38
2022-08-17T16:20:20.392Z,31.66
2022-08-17T16:22:49.815Z,31.74
2022-08-17T16:25:23.191Z,30.97
2022-08-17T16:28:09.829Z,30.86
2022-08-17T16:30:37.504Z,31.76
2022-08-17T16:33:05.050Z,30.53
2022-08-17T16:35:31.896Z,29.96
2022-08-17T16:37:58.839Z,28.69
2022-08-17T16:40:28.665Z,28.89
2022-08-17T16:42:56.198Z,29.67
2022-08-17T16:45:36.643Z,30.21
2022-08-17T16:48:04.361Z,30.88
2022-08-17T16:50:31.944Z,31.83
2022-08-17T16:53:17.383Z,32.95
2022-08-17T16:55:45.143Z,31.69
2022-08-17T16:58:12.024Z,32.59
2022-08-17T17:00:39.528Z,33.62
2022-08-17T17:03:19.432Z,33.20
2022-08-17T17:05:58.765Z,33.52
2022-08-17T17:08:34.816Z,35.42
2022-08-17T17:11:14.841Z,36.39
2022-08-17T17:13:54.175Z,37.03
2022-08-17T17:16:31.327Z,38.49
2022-08-17T17:19:34.340Z,39.33
2022-08-17T17:22:08.375Z,38.55
2022-08-17T17:24:40.946Z,38.61
2022-08-17T17:27:34.814Z,38.34
2022-08-17T17:30:09.907Z,39.97
2022-08-17T17:32:44.288Z,40.75
2022-08-17T17:35:24.248Z,41.58
2022-08-17T17:37:53.204Z,42.23
2022-08-17T17:40:37.012Z,43.49
2022-08-17T17:43:34.643Z,43.08
2022-08-17T17:46:28.033Z,44.08
2022-08-17T17:48:55.109Z,44.52
2022-08-17T17:52:06.860Z,44.89
2022-08-17T17:54:46.865Z,45.77
2022-08-17T17:57:34.817Z,46.14
2022-08-17T18:00:06.552Z,46.54
2022-08-17T18:02:51.728Z,46.74
2022-08-17T18:05:37.377Z,47.25
2022-08-17T18:08:32.388Z,47.78
2022-08-17T18:11:24.612Z,48.09
2022-08-17T18:13:57.399Z,48.53
2022-08-17T18:16:27.430Z,49.58
2022-08-17T18:18:57.630Z,50.55
2022-08-17T18:21:35.028Z,51.24
2022-08-17T18:24:04.261Z,52.43
2022-08-17T18:26:50.082Z,53.07
2022-08-17T18:29:37.577Z,53.63
2022-08-17T18:32:23.838Z,53.33
2022-08-17T18:34:57.283Z,54.03
2022-08-17T18:37:47.215Z,54.56
2022-08-17T18:40:17.163Z,54.57
2022-08-17T18:43:00.892Z,54.71
2022-08-17T18:45:49.129Z,55.70
2022-08-17T18:48:49.784Z,55.85
2022-08-17T18:51:46.156Z,55.86
2022-08-17T18:54:20.127Z,56.47
2022-08-17T18:56:53.683Z,55.63
2022-08-17T18:59:28.280Z,55.57
2022-08-17T19:02:45.193Z,55.85
2022-08-17T19:05:31.058Z,56.01
2022-08-17T19:08:27.404Z,55.61
2022-08-17T19:10:59.886Z,55.50
2022-08-17T19:13:40.759Z,55.85
2022-08-17T19:16:15.387Z,57.63
2022-08-17T19:18:53.744Z,57.40
2022-08-17T19:21:43.011Z,57.09
2022-08-17T19:24:14.262Z,57.36
2022-08-17T19:26:53.608Z,57.96
2022-08-17T19:29:29.999Z,57.99
2022-08-17T19:31:58.771Z,57.81
2022-08-17T19:34:33.495Z,57.58
2022-08-17T19:37:26.518Z,57.25
2022-08-17T19:39:53.106Z,57.73
2022-08-17T19:42:26.157Z,57.71
2022-08-17T19:45:03.000Z,58.27
2022-08-17T19:47:53.336Z,58.11
2022-08-17T19:50:30.213Z,58.57
2022-08-17T19:53:07.790Z,59.66
2022-08-17T19:56:17.475Z,60.51
2022-08-17T19:58:49.917Z,59.45
2022-08-17T20:01:34.966Z,58.89
2022-08-17T20:04:19.619Z,58.29
2022-08-17T20:06:49.583Z,59.81
2022-08-17T20:09:33.402Z,59.29
2022-08-17T20:12:16.488Z,59.24
2022-08-17T20:15:29.606Z,61.17
2022-08-17T20:18:00.300Z,60.44
2022-08-17T20:20:48.545Z,58.85
2022-08-17T20:23:40.476Z,58.96
2022-08-17T20:26:20.677Z,58.86
2022-08-17T20:29:07.611Z,58.64
2022-08-17T20:31:49.772Z,59.16
2022-08-17T20:34:30.865Z,57.79
2022-08-17T20:37:10.991Z,58.79
2022-08-17T20:39:42.487Z,58.28
2022-08-17T20:42:15.069Z,57.54
2022-08-17T20:44:43.232Z,57.58
2022-08-17T20:47:17.366Z,57.78
2022-08-17T20:49:47.176Z,57.60
2022-08-17T20:52:35.368Z,58.66
2022-08-17T20:55:04.422Z,58.65
2022-08-17T20:57:31.361Z,59.42
2022-08-17T21:00:14.975Z,59.22
2022-08-17T21:02:47.388Z,58.95
2022-08-17T21:05:59.802Z,60.01
2022-08-17T21:08:30.083Z,61.82
2022-08-17T21:10:58.443Z,61.28
2022-08-17T21:13:40.383Z,61.35
2022-08-17T21:16:09.900Z,61.23
2022-08-17T21:18:59.228Z,60.89
2022-08-17T21:21:26.020Z,60.93
2022-08-17T21:24:22.512Z,60.70
2022-08-17T21:27:14.040Z,61.45
2022-08-17T21:30:06.557Z,61.30
2022-08-17T21:32:40.435Z,61.30
2022-08-17T21:35:11.444Z,61.13
2022-08-17T21:41:54.641Z,61.89
2022-08-17T21:44:48.583Z,61.31
2022-08-17T21:47:28.583Z,61.42
2022-08-17T21:50:12.839Z,61.04
2022-08-17T21:52:40.596Z,60.42
2022-08-17T21:55:08.133Z,61.22
2022-08-17T21:57:41.866Z,60.28
2022-08-17T22:00:32.191Z,60.02
2022-08-17T22:03:01.912Z,60.77
2022-08-17T22:05:40.009Z,61.16
2022-08-17T22:08:19.143Z,60.64
2022-08-17T22:10:50.476Z,60.22
2022-08-17T22:13:17.709Z,61.00
2022-08-17T22:15:47.205Z,60.02
2022-08-17T22:18:21.674Z,61.79
2022-08-17T22:21:01.725Z,62.00
2022-08-17T22:23:53.880Z,64.67
2022-08-17T22:26:24.220Z,65.01
2022-08-17T22:28:54.374Z,65.74
2022-08-17T22:31:29.096Z,65.97
2022-08-17T22:34:01.485Z,65.03
2022-08-17T22:36:30.943Z,65.27
2022-08-17T22:39:07.504Z,65.31
2022-08-17T22:41:54.381Z,64.86
2022-08-17T22:44:27.796Z,63.92
2022-08-17T22:46:56.568Z,64.14
2022-08-17T22:49:38.605Z,64.71
2022-08-17T22:52:29.200Z,63.61
2022-08-17T22:55:35.014Z,64.11
2022-08-17T22:58:28.164Z,63.51
2022-08-17T23:00:55.811Z,63.89
2022-08-17T23:03:27.234Z,64.07
2022-08-17T23:06:06.853Z,63.66
2022-08-17T23:08:36.464Z,63.90
2022-08-17T23:11:05.391Z,64.25
2022-08-17T23:13:33.528Z,64.01
2022-08-17T23:16:00.328Z,64.36
2022-08-17T23:18:27.395Z,63.90
2022-08-17T23:20:54.299Z,64.81
2022-08-17T23:23:23.882Z,64.82
2022-08-17T23:25:50.995Z,64.48
2022-08-17T23:28:17.656Z,65.25
2022-08-17T23:30:45.106Z,65.19
2022-08-17T23:33:30.046Z,65.17
2022-08-17T23:36:00.225Z,64.45
2022-08-17T23:38:27.877Z,65.52
2022-08-17T23:41:00.065Z,65.79
2022-08-17T23:43:28.810Z,65.51
2022-08-17T23:45:57.529Z,68.54
2022-08-17T23:48:34.913Z,68.56
2022-08-17T23:51:17.353Z,68.65
2022-08-17T23:53:50.124Z,69.84
2022-08-17T23:56:23.295Z,71.16
2022-08-17T23:58:51.412Z,70.98
